createdAt,value
2022-10-10T00:01:29.257Z,7.65
2022-10-10T00:03:56.775Z,7.65
2022-10-10T00:06:25.164Z,7.62
2022-10-10T00:08:53.589Z,7.60
2022-10-10T00:11:23.777Z,7.59
2022-10-10T00:13:52.479Z,7.57
2022-10-10T00:16:20.864Z,7.56
2022-10-10T00:18:48.578Z,7.56
2022-10-10T00:21:16.335Z,7.55
2022-10-10T00:23:43.438Z,7.55
2022-10-10T00:26:14.949Z,7.55
2022-10-10T00:28:45.893Z,7.53
2022-10-10T00:31:12.899Z,7.51
2022-10-10T00:33:39.955Z,7.53
2022-10-10T00:36:07.526Z,7.54
2022-10-10T00:38:35.469Z,7.52
2022-10-10T00:41:02.851Z,7.54
2022-10-10T00:43:31.097Z,7.52
2022-10-10T00:45:58.275Z,7.50
2022-10-10T00:48:30.037Z,7.50
2022-10-10T00:51:19.001Z,7.48
2022-10-10T00:53:58.928Z,7.48
2022-10-10T00:56:33.778Z,7.48
2022-10-10T00:59:08.772Z,7.46
2022-10-10T01:01:35.789Z,7.44
2022-10-10T01:04:03.893Z,7.46
2022-10-10T01:06:32.807Z,7.44
2022-10-10T01:09:07.991Z,7.44
2022-10-10T01:11:55.570Z,7.44
2022-10-10T01:14:42.129Z,7.42
2022-10-10T01:17:26.246Z,7.42
2022-10-10T01:20:08.536Z,7.40
2022-10-10T01:22:41.717Z,7.39
2022-10-10T01:25:56.944Z,7.39
2022-10-10T01:28:39.823Z,7.42
2022-10-10T01:31:11.023Z,7.39
2022-10-10T01:33:43.627Z,7.36
2022-10-10T01:36:22.965Z,7.37
2022-10-10T01:38:54.036Z,7.40
2022-10-10T01:41:39.428Z,7.35
2022-10-10T01:44:06.557Z,7.39
2022-10-10T01:46:33.856Z,7.40
2022-10-10T01:49:02.749Z,7.39
2022-10-10T01:51:44.899Z,7.39
2022-10-10T01:54:20.988Z,7.39
2022-10-10T01:57:05.387Z,7.34
2022-10-10T02:00:00.748Z,7.37
2022-10-10T02:02:35.905Z,7.34
2022-10-10T02:05:32.995Z,7.34
2022-10-10T02:08:12.415Z,7.36
2022-10-10T02:10:51.279Z,7.42
2022-10-10T02:13:18.815Z,7.39
2022-10-10T02:15:51.274Z,7.39
2022-10-10T02:18:22.482Z,7.41
2022-10-10T02:20:51.785Z,7.42
2022-10-10T02:23:22.037Z,7.42
2022-10-10T02:25:56.214Z,7.42
2022-10-10T02:28:33.777Z,7.47
2022-10-10T02:31:07.270Z,7.48
2022-10-10T02:33:56.668Z,7.50
2022-10-10T02:36:25.251Z,7.53
2022-10-10T02:38:54.237Z,7.54
2022-10-10T02:41:23.446Z,7.55
2022-10-10T02:43:52.257Z,7.55
2022-10-10T02:46:20.176Z,7.58
2022-10-10T02:48:47.448Z,7.56
2022-10-10T02:51:16.547Z,7.59
2022-10-10T02:53:43.614Z,7.58
2022-10-10T02:56:11.107Z,7.61
2022-10-10T02:58:38.496Z,7.63
2022-10-10T03:01:05.877Z,7.65
2022-10-10T03:03:34.133Z,7.63
2022-10-10T03:06:04.778Z,7.63
2022-10-10T03:08:32.206Z,7.65
2022-10-10T03:11:02.707Z,7.64
2022-10-10T03:13:30.831Z,7.64
2022-10-10T03:15:58.087Z,7.65
2022-10-10T03:18:25.269Z,7.65
2022-10-10T03:20:56.647Z,7.65
2022-10-10T03:23:25.377Z,7.63
2022-10-10T03:25:52.794Z,7.63
2022-10-10T03:28:20.929Z,7.65
2022-10-10T03:30:48.495Z,7.66
2022-10-10T03:33:16.124Z,7.65
2022-10-10T03:35:43.216Z,7.65
2022-10-10T03:38:11.610Z,7.69
2022-10-10T03:40:43.656Z,7.67
2022-10-10T03:43:12.667Z,7.66
2022-10-10T03:45:43.052Z,7.66
2022-10-10T03:48:10.879Z,7.64
2022-10-10T03:50:38.146Z,7.63
2022-10-10T03:53:05.962Z,7.65
2022-10-10T03:55:32.979Z,7.66
2022-10-10T03:58:01.056Z,7.64
2022-10-10T04:00:28.006Z,7.63
2022-10-10T04:02:55.156Z,7.62
2022-10-10T04:05:22.107Z,7.61
2022-10-10T04:07:49.473Z,7.59
2022-10-10T04:10:16.792Z,7.58
2022-10-10T04:12:44.208Z,7.57
2022-10-10T04:15:11.274Z,7.56
2022-10-10T04:17:38.480Z,7.55
2022-10-10T04:20:05.878Z,7.54
2022-10-10T04:22:32.943Z,7.53
2022-10-10T04:24:59.876Z,7.54
2022-10-10T04:27:26.991Z,7.56
2022-10-10T04:29:54.251Z,7.50
2022-10-10T04:32:21.397Z,7.51
2022-10-10T04:34:48.532Z,7.50
2022-10-10T04:37:16.159Z,7.50
2022-10-10T04:39:43.108Z,7.50
2022-10-10T04:42:10.218Z,7.51
2022-10-10T04:44:37.577Z,7.54
2022-10-10T04:47:04.719Z,7.53
2022-10-10T04:49:31.627Z,7.58
2022-10-10T04:51:58.786Z,7.61
2022-10-10T04:54:25.701Z,7.56
2022-10-10T04:56:52.986Z,7.55
2022-10-10T04:59:20.217Z,7.59
2022-10-10T05:01:47.315Z,7.61
2022-10-10T05:04:14.759Z,7.61
2022-10-10T05:06:41.914Z,7.64
2022-10-10T05:09:08.888Z,7.66
2022-10-10T05:11:36.210Z,7.70
2022-10-10T05:14:04.519Z,7.69
2022-10-10T05:16:31.704Z,7.69
2022-10-10T05:18:58.671Z,7.66
2022-10-10T05:21:25.831Z,7.67
2022-10-10T05:23:52.792Z,7.69
2022-10-10T05:26:21.018Z,7.68
2022-10-10T05:28:49.004Z,7.65
2022-10-10T05:31:16.095Z,7.67
2022-10-10T05:33:43.061Z,7.66
2022-10-10T05:36:13.926Z,7.65
2022-10-10T05:38:42.593Z,7.72
2022-10-10T05:41:10.143Z,7.73
2022-10-10T05:43:37.511Z,7.72
2022-10-10T05:46:05.255Z,7.73
2022-10-10T05:48:32.486Z,7.74
2022-10-10T05:51:00.828Z,7.74
2022-10-10T05:53:30.320Z,7.77
2022-10-10T05:55:57.827Z,7.82
2022-10-10T05:58:26.687Z,7.84
2022-10-10T06:00:53.984Z,7.89
2022-10-10T06:03:23.589Z,7.91
2022-10-10T06:05:51.919Z,7.94
2022-10-10T06:08:19.094Z,7.96
2022-10-10T06:10:46.593Z,8.00
2022-10-10T06:13:20.299Z,8.06
2022-10-10T06:15:53.225Z,8.11
2022-10-10T06:18:20.399Z,8.13
2022-10-10T06:20:47.551Z,8.17
2022-10-10T06:23:14.812Z,8.20
2022-10-10T06:25:42.301Z,8.27
2022-10-10T06:28:11.376Z,8.29
2022-10-10T06:30:48.687Z,8.29
2022-10-10T06:33:18.752Z,8.29
2022-10-10T06:35:47.995Z,8.33
2022-10-10T06:38:17.257Z,8.35
2022-10-10T06:40:46.321Z,8.39
2022-10-10T06:43:16.312Z,8.44
2022-10-10T06:45:50.129Z,8.46
2022-10-10T06:48:17.228Z,8.50
2022-10-10T06:50:44.206Z,8.56
2022-10-10T06:53:11.255Z,8.60
2022-10-10T06:55:38.208Z,8.64
2022-10-10T06:58:05.865Z,8.71
2022-10-10T07:00:32.863Z,8.78
2022-10-10T07:02:59.980Z,8.81
2022-10-10T07:05:26.946Z,8.86
2022-10-10T07:07:54.056Z,8.85
2022-10-10T07:10:21.113Z,8.88
2022-10-10T07:12:48.506Z,8.91
2022-10-10T07:15:15.753Z,8.93
2022-10-10T07:17:44.201Z,8.97
2022-10-10T07:20:11.590Z,8.99
2022-10-10T07:22:38.697Z,9.04
2022-10-10T07:25:06.038Z,9.08
2022-10-10T07:27:33.035Z,9.12
2022-10-10T07:29:59.983Z,9.18
2022-10-10T07:32:27.015Z,9.22
2022-10-10T07:34:54.562Z,9.32
2022-10-10T07:37:21.815Z,9.42
2022-10-10T07:39:49.006Z,9.53
2022-10-10T07:42:16.155Z,9.65
2022-10-10T07:44:43.652Z,9.76
2022-10-10T07:47:11.029Z,9.83
2022-10-10T07:49:38.739Z,9.96
2022-10-10T07:52:05.911Z,10.08
2022-10-10T07:54:33.486Z,10.21
2022-10-10T07:57:00.877Z,10.33
2022-10-10T07:59:28.466Z,10.39
2022-10-10T08:01:55.667Z,10.44
2022-10-10T08:04:23.850Z,10.49
2022-10-10T08:06:51.275Z,10.60
2022-10-10T08:09:18.559Z,10.65
2022-10-10T08:11:45.692Z,10.75
2022-10-10T08:14:13.264Z,10.87
2022-10-10T08:16:40.484Z,10.98
2022-10-10T08:19:07.897Z,11.10
2022-10-10T08:21:36.358Z,11.24
2022-10-10T08:24:06.584Z,11.33
2022-10-10T08:26:33.707Z,11.33
2022-10-10T08:29:01.427Z,11.50
2022-10-10T08:31:29.175Z,11.60
2022-10-10T08:33:56.954Z,11.66
2022-10-10T08:36:24.964Z,11.77
2022-10-10T08:39:00.161Z,11.80
2022-10-10T08:41:38.525Z,11.78
2022-10-10T08:44:21.513Z,11.90
2022-10-10T08:47:02.275Z,11.85
2022-10-10T08:49:55.842Z,11.99
2022-10-10T08:52:25.767Z,12.00
2022-10-10T08:54:58.287Z,12.02
2022-10-10T08:57:55.684Z,12.04
2022-10-10T09:00:25.382Z,12.03
2022-10-10T09:02:59.290Z,12.02
2022-10-10T09:06:01.686Z,12.00
2022-10-10T09:08:58.756Z,11.92
2022-10-10T09:11:40.790Z,11.88
2022-10-10T09:14:22.838Z,11.92
2022-10-10T09:17:05.306Z,12.08
2022-10-10T09:19:53.497Z,12.18
2022-10-10T09:22:25.776Z,12.28
2022-10-10T09:25:04.586Z,12.34
2022-10-10T09:27:38.436Z,12.31
2022-10-10T09:30:19.999Z,12.33
2022-10-10T09:33:01.694Z,12.43
2022-10-10T09:35:31.667Z,12.47
2022-10-10T09:38:39.667Z,12.66
2022-10-10T09:41:15.618Z,12.74
2022-10-10T09:43:42.929Z,12.92
2022-10-10T09:46:11.033Z,12.86
2022-10-10T09:48:40.786Z,12.91
2022-10-10T09:51:14.337Z,12.98
2022-10-10T09:53:42.426Z,13.12
2022-10-10T09:56:18.858Z,13.26
2022-10-10T09:58:48.832Z,13.46
2022-10-10T10:01:24.270Z,13.62
2022-10-10T10:04:28.678Z,13.70
2022-10-10T10:07:06.557Z,13.82
2022-10-10T10:09:34.216Z,14.12
2022-10-10T10:12:01.450Z,14.26
2022-10-10T10:14:32.682Z,14.19
2022-10-10T10:17:15.970Z,14.31
2022-10-10T10:19:47.724Z,14.33
2022-10-10T10:22:31.576Z,14.52
2022-10-10T10:25:00.613Z,14.56
2022-10-10T10:27:29.396Z,14.57
2022-10-10T10:29:58.819Z,14.68
2022-10-10T10:32:59.654Z,14.74
2022-10-10T10:35:41.885Z,14.83
2022-10-10T10:38:20.360Z,14.91
2022-10-10T10:41:38.428Z,15.16
2022-10-10T10:44:46.826Z,15.20
2022-10-10T10:47:16.795Z,15.41
2022-10-10T10:49:52.187Z,15.33
2022-10-10T10:52:53.147Z,15.41
2022-10-10T10:55:39.070Z,15.69
2022-10-10T11:01:57.725Z,15.78
2022-10-10T11:05:22.472Z,15.81
2022-10-10T11:08:12.461Z,15.91
2022-10-10T11:10:59.161Z,15.89
2022-10-10T11:13:59.515Z,15.89
2022-10-10T11:16:48.300Z,15.98
2022-10-10T11:19:41.914Z,16.08
2022-10-10T11:22:13.982Z,16.30
2022-10-10T11:25:08.739Z,16.20
2022-10-10T11:27:43.180Z,16.28
2022-10-10T11:30:17.511Z,16.33
2022-10-10T11:33:02.609Z,16.30
2022-10-10T11:35:53.667Z,16.79
2022-10-10T11:38:39.346Z,16.61
2022-10-10T11:41:09.937Z,16.57
2022-10-10T11:44:16.662Z,16.70
2022-10-10T11:47:13.334Z,16.74
2022-10-10T11:50:07.676Z,16.88
2022-10-10T11:52:37.428Z,16.91
2022-10-10T11:55:13.055Z,17.05
2022-10-10T11:58:06.606Z,17.10
2022-10-10T12:00:39.543Z,17.10
2022-10-10T12:03:08.907Z,17.53
2022-10-10T12:05:40.517Z,17.38
2022-10-10T12:08:18.339Z,17.38
2022-10-10T12:11:19.595Z,17.28
2022-10-10T12:13:59.247Z,17.38
2022-10-10T12:16:30.733Z,17.44
2022-10-10T12:19:05.701Z,17.36
2022-10-10T12:22:13.928Z,17.50
2022-10-10T12:25:20.827Z,17.55
2022-10-10T12:28:14.530Z,18.18
2022-10-10T12:30:58.519Z,17.92
2022-10-10T12:33:28.944Z,17.77
2022-10-10T12:35:56.066Z,17.67
2022-10-10T12:38:28.120Z,17.72
2022-10-10T12:40:58.190Z,17.74
2022-10-10T12:43:50.598Z,17.79
2022-10-10T12:46:24.765Z,17.88
2022-10-10T12:49:22.997Z,17.93
2022-10-10T12:52:20.727Z,18.50
2022-10-10T12:54:49.424Z,18.19
2022-10-10T12:57:30.808Z,18.11
2022-10-10T13:00:04.562Z,18.11
2022-10-10T13:02:31.735Z,18.06
2022-10-10T13:05:02.764Z,18.08
2022-10-10T13:07:30.635Z,18.16
2022-10-10T13:10:19.288Z,18.09
2022-10-10T13:12:46.329Z,18.58
2022-10-10T13:15:20.797Z,18.54
2022-10-10T13:17:47.927Z,18.34
2022-10-10T13:20:37.150Z,18.30
2022-10-10T13:23:11.298Z,18.36
2022-10-10T13:25:39.885Z,18.21
2022-10-10T13:28:19.033Z,18.19
2022-10-10T13:30:46.966Z,18.16
2022-10-10T13:33:20.787Z,18.20
2022-10-10T13:35:49.222Z,18.81
2022-10-10T13:38:19.061Z,18.57
2022-10-10T13:40:46.840Z,18.34
2022-10-10T13:43:17.500Z,18.39
2022-10-10T13:45:55.909Z,18.32
2022-10-10T13:48:38.067Z,18.45
2022-10-10T13:51:11.442Z,18.52
2022-10-10T13:53:54.695Z,18.54
2022-10-10T13:56:31.715Z,18.43
2022-10-10T13:59:01.486Z,18.97
2022-10-10T14:01:34.744Z,18.46
2022-10-10T14:04:04.247Z,18.33
2022-10-10T14:06:32.593Z,18.31
2022-10-10T14:09:13.946Z,18.16
2022-10-10T14:11:43.324Z,18.07
2022-10-10T14:14:26.389Z,18.02
2022-10-10T14:17:05.014Z,18.07
2022-10-10T14:19:33.430Z,18.36
2022-10-10T14:22:00.624Z,18.70
2022-10-10T14:24:27.863Z,18.24
2022-10-10T14:26:55.194Z,18.15
2022-10-10T14:29:23.396Z,18.11
2022-10-10T14:31:53.095Z,18.06
2022-10-10T14:34:27.855Z,18.06
2022-10-10T14:36:55.124Z,18.06
2022-10-10T14:39:22.480Z,18.13
2022-10-10T14:41:55.322Z,18.13
2022-10-10T14:44:22.765Z,18.09
2022-10-10T14:46:49.931Z,18.13
2022-10-10T14:49:21.368Z,18.69
2022-10-10T14:51:48.892Z,18.23
2022-10-10T14:54:16.138Z,18.01
2022-10-10T14:57:08.653Z,17.95
2022-10-10T14:59:47.627Z,17.90
2022-10-10T15:02:19.515Z,17.88
2022-10-10T15:04:47.036Z,17.82
2022-10-10T15:07:15.439Z,17.77
2022-10-10T15:10:42.444Z,17.71
2022-10-10T15:12:38.920Z,18.32
2022-10-10T15:15:07.429Z,17.88
2022-10-10T15:17:35.025Z,18.25
2022-10-10T15:20:04.204Z,18.04
2022-10-10T15:22:31.881Z,17.72
2022-10-10T15:24:59.362Z,17.60
2022-10-10T15:27:28.264Z,17.55
2022-10-10T15:29:56.358Z,17.50
2022-10-10T15:32:23.535Z,17.43
2022-10-10T15:34:51.718Z,17.35
2022-10-10T15:37:19.914Z,17.28
2022-10-10T15:39:48.038Z,17.24
2022-10-10T15:42:22.166Z,17.19
2022-10-10T15:44:53.686Z,17.13
2022-10-10T15:47:21.811Z,17.11
2022-10-10T15:49:49.427Z,17.03
2022-10-10T15:52:19.193Z,16.97
2022-10-10T15:54:48.980Z,16.89
2022-10-10T15:57:18.777Z,16.83
2022-10-10T15:59:47.918Z,16.77
2022-10-10T16:02:15.327Z,16.72
2022-10-10T16:04:44.260Z,16.69
2022-10-10T16:07:25.832Z,16.63
2022-10-10T16:09:55.848Z,16.83
2022-10-10T16:12:23.027Z,17.01
2022-10-10T16:14:51.912Z,16.71
2022-10-10T16:17:23.093Z,16.57
2022-10-10T16:19:50.989Z,16.50
2022-10-10T16:22:18.220Z,16.49
2022-10-10T16:24:58.224Z,16.44
2022-10-10T16:27:32.399Z,16.55
2022-10-10T16:29:59.928Z,16.86
2022-10-10T16:32:27.105Z,16.54
2022-10-10T16:34:54.409Z,16.37
2022-10-10T16:37:21.591Z,16.32
2022-10-10T16:39:48.823Z,16.28
2022-10-10T16:42:16.338Z,16.25
2022-10-10T16:44:50.600Z,16.22
2022-10-10T16:47:17.896Z,16.20
2022-10-10T16:49:45.066Z,16.17
2022-10-10T16:52:12.373Z,16.15
2022-10-10T16:54:39.598Z,16.54
2022-10-10T16:57:06.823Z,16.48
2022-10-10T16:59:35.017Z,16.21
2022-10-10T17:02:02.135Z,16.14
2022-10-10T17:04:29.416Z,16.07
2022-10-10T17:06:56.501Z,16.04
2022-10-10T17:09:24.204Z,16.00
2022-10-10T17:11:51.742Z,15.98
2022-10-10T17:14:19.576Z,15.94
2022-10-10T17:17:11.049Z,15.92
2022-10-10T17:19:34.082Z,15.87
2022-10-10T17:22:01.244Z,15.89
2022-10-10T17:24:28.494Z,16.37
2022-10-10T17:26:55.752Z,16.02
2022-10-10T17:29:24.988Z,15.87
2022-10-10T17:31:52.132Z,15.82
2022-10-10T17:34:19.719Z,15.80
2022-10-10T17:36:47.247Z,15.79
2022-10-10T17:39:14.413Z,15.75
2022-10-10T17:41:41.787Z,15.74
2022-10-10T17:44:10.965Z,15.76
2022-10-10T17:46:38.709Z,15.76
2022-10-10T17:49:07.658Z,15.73
2022-10-10T17:51:36.267Z,15.70
2022-10-10T17:54:04.637Z,16.49
2022-10-10T17:56:32.325Z,16.31
2022-10-10T17:59:01.867Z,15.94
2022-10-10T18:01:31.110Z,15.79
2022-10-10T18:03:59.193Z,15.70
2022-10-10T18:06:26.631Z,15.64
2022-10-10T18:08:54.326Z,15.60
2022-10-10T18:11:24.697Z,15.55
2022-10-10T18:13:52.593Z,15.53
2022-10-10T18:16:22.252Z,15.50
2022-10-10T18:18:52.076Z,15.48
2022-10-10T18:21:21.986Z,15.34
2022-10-10T18:23:52.546Z,15.47
2022-10-10T18:26:22.558Z,15.45
2022-10-10T18:28:52.807Z,15.26
2022-10-10T18:31:28.179Z,15.14
2022-10-10T18:33:56.118Z,15.08
2022-10-10T18:36:25.851Z,15.01
2022-10-10T18:38:53.805Z,14.96
2022-10-10T18:41:25.395Z,14.91
2022-10-10T18:43:52.864Z,14.85
2022-10-10T18:46:22.235Z,14.81
2022-10-10T18:48:54.218Z,14.70
2022-10-10T18:51:25.228Z,14.63
2022-10-10T18:53:56.264Z,14.59
2022-10-10T18:56:26.594Z,14.51
2022-10-10T18:58:57.932Z,14.71
2022-10-10T19:01:30.608Z,14.60
2022-10-10T19:03:57.939Z,14.46
2022-10-10T19:06:26.351Z,14.39
2022-10-10T19:08:56.344Z,14.33
2022-10-10T19:11:32.953Z,14.27
2022-10-10T19:14:05.022Z,14.22
2022-10-10T19:16:32.829Z,14.19
2022-10-10T19:19:01.524Z,14.12
2022-10-10T19:21:31.877Z,14.09
2022-10-10T19:24:00.245Z,14.05
2022-10-10T19:26:28.044Z,13.96
2022-10-10T19:28:55.531Z,13.91
2022-10-10T19:31:27.150Z,13.86
2022-10-10T19:33:54.356Z,13.80
2022-10-10T19:36:21.593Z,13.76
2022-10-10T19:38:48.783Z,13.78
2022-10-10T19:41:16.503Z,13.97
2022-10-10T19:43:47.758Z,13.72
2022-10-10T19:46:17.758Z,13.62
2022-10-10T19:48:45.082Z,13.55
2022-10-10T19:51:16.150Z,13.48
2022-10-10T19:53:44.086Z,13.42
2022-10-10T19:56:16.785Z,13.39
2022-10-10T19:58:44.028Z,13.34
2022-10-10T20:01:13.274Z,13.30
2022-10-10T20:03:41.274Z,13.26
2022-10-10T20:06:08.498Z,13.20
2022-10-10T20:08:35.639Z,13.17
2022-10-10T20:11:05.499Z,13.15
2022-10-10T20:13:34.936Z,13.15
2022-10-10T20:16:05.768Z,13.12
2022-10-10T20:18:35.498Z,13.10
2022-10-10T20:21:14.214Z,13.32
2022-10-10T20:23:44.825Z,13.20
2022-10-10T20:26:18.767Z,13.06
2022-10-10T20:28:46.533Z,13.06
2022-10-10T20:31:18.374Z,13.03
2022-10-10T20:33:48.519Z,12.98
2022-10-10T20:36:16.671Z,12.97
2022-10-10T20:38:44.047Z,12.95
2022-10-10T20:41:11.908Z,12.89
2022-10-10T20:43:43.260Z,12.88
2022-10-10T20:46:12.743Z,12.88
2022-10-10T20:48:40.522Z,12.89
2022-10-10T20:51:10.809Z,12.87
2022-10-10T20:53:44.224Z,12.86
2022-10-10T20:56:12.875Z,12.87
2022-10-10T20:58:41.109Z,12.83
2022-10-10T21:01:16.292Z,12.81
2022-10-10T21:03:45.294Z,12.81
2022-10-10T21:06:19.320Z,12.94
2022-10-10T21:08:46.710Z,12.81
2022-10-10T21:11:18.124Z,12.74
2022-10-10T21:13:56.798Z,12.69
2022-10-10T21:16:26.332Z,12.64
2022-10-10T21:18:57.862Z,12.62
2022-10-10T21:21:27.776Z,12.58
2022-10-10T21:23:56.479Z,12.54
2022-10-10T21:26:26.892Z,12.53
2022-10-10T21:28:56.307Z,12.50
2022-10-10T21:31:26.470Z,12.49
2022-10-10T21:33:54.412Z,12.47
2022-10-10T21:36:22.624Z,12.49
2022-10-10T21:38:49.805Z,12.68
2022-10-10T21:41:22.158Z,12.52
2022-10-10T21:43:59.907Z,12.43
2022-10-10T21:46:34.807Z,12.38
2022-10-10T21:49:10.187Z,12.34
2022-10-10T21:51:39.547Z,12.30
2022-10-10T21:54:08.819Z,12.29
2022-10-10T21:56:36.591Z,12.27
2022-10-10T21:59:05.312Z,12.24
2022-10-10T22:01:37.677Z,12.20
2022-10-10T22:04:06.150Z,12.19
2022-10-10T22:06:33.776Z,12.18
2022-10-10T22:09:06.912Z,12.14
2022-10-10T22:11:35.074Z,12.11
2022-10-10T22:14:07.062Z,12.11
2022-10-10T22:16:34.846Z,12.06
2022-10-10T22:19:02.469Z,12.05
2022-10-10T22:21:34.960Z,12.00
2022-10-10T22:24:05.475Z,11.98
2022-10-10T22:26:34.078Z,11.95
2022-10-10T22:29:01.950Z,11.93
2022-10-10T22:31:29.537Z,11.90
2022-10-10T22:33:56.998Z,12.10
2022-10-10T22:36:24.099Z,11.94
2022-10-10T22:38:51.172Z,12.14
2022-10-10T22:41:18.375Z,12.15
2022-10-10T22:43:46.363Z,11.94
2022-10-10T22:46:13.466Z,11.87
2022-10-10T22:48:40.637Z,11.85
2022-10-10T22:51:18.353Z,11.82
2022-10-10T22:53:47.472Z,11.80
2022-10-10T22:56:19.491Z,11.77
2022-10-10T22:58:48.771Z,11.75
2022-10-10T23:01:20.217Z,11.75
2022-10-10T23:03:47.546Z,11.73
2022-10-10T23:06:15.292Z,11.74
2022-10-10T23:08:42.353Z,11.73
2022-10-10T23:11:09.371Z,11.73
2022-10-10T23:13:37.592Z,11.71
2022-10-10T23:16:05.082Z,11.72
2022-10-10T23:18:32.625Z,11.72
2022-10-10T23:21:00.071Z,11.71
2022-10-10T23:23:27.605Z,11.69
2022-10-10T23:25:54.963Z,11.70
2022-10-10T23:28:23.159Z,11.68
2022-10-10T23:30:50.118Z,11.67
2022-10-10T23:33:17.789Z,11.65
2022-10-10T23:35:44.735Z,11.64
2022-10-10T23:38:11.863Z,11.63
2022-10-10T23:40:41.966Z,11.61
2022-10-10T23:43:10.849Z,11.60
2022-10-10T23:45:40.522Z,11.59
2022-10-10T23:48:07.689Z,11.57
2022-10-10T23:50:34.748Z,11.56
2022-10-10T23:53:01.999Z,11.54
2022-10-10T23:55:28.947Z,11.53
2022-10-10T23:57:58.567Z,11.51
